YZE weather

Gore Bay Manitoulin Airport
Gore Bay, Ontario, Canada

Public forecast

Using degrees Celsius for public forecast. Weather courtesy of forecast.io.

METAR (pilot weather report)

Retrieved 2019/04/21 19:00 UTC (60 minutes ago):

CYZE 211900Z AUTO 32003KT 9SM OVC085 10/02 A3003 RMK SLP176

TAF (pilot weather forecast)

Retrieved 2019/04/21 20:00 UTC (0 seconds ago):

TAF CYZE 211952Z 2120/2122 VRB03KT P6SM OVC080 RMK FCST BASED ON AUTO OBS. NXT FCST WILL BE ISSUED AT 220945Z